地図

経路データ

SID SEASON NUMBER BASIN SUBBASIN NAME ISO_TIME NATURE LAT LON WMO_WIND WMO_PRES WMO_AGENCY TRACK_TYPE DIST2LAND LANDFALL IFLAG USA_AGENCY USA_ATCF_ID USA_LAT USA_LON USA_RECORD USA_STATUS USA_WIND USA_PRES USA_SSHS USA_R34_NE USA_R34_SE USA_R34_SW USA_R34_NW USA_R50_NE USA_R50_SE USA_R50_SW USA_R50_NW USA_R64_NE USA_R64_SE USA_R64_SW USA_R64_NW USA_POCI USA_ROCI USA_RMW USA_EYE TOKYO_LAT TOKYO_LON TOKYO_GRADE TOKYO_WIND TOKYO_PRES TOKYO_R50_DIR TOKYO_R50_LONG TOKYO_R50_SHORT TOKYO_R30_DIR TOKYO_R30_LONG TOKYO_R30_SHORT TOKYO_LAND CMA_LAT CMA_LON CMA_CAT CMA_WIND CMA_PRES HKO_LAT HKO_LON HKO_CAT HKO_WIND HKO_PRES NEWDELHI_LAT NEWDELHI_LON NEWDELHI_GRADE NEWDELHI_WIND NEWDELHI_PRES NEWDELHI_CI NEWDELHI_DP NEWDELHI_POCI REUNION_LAT REUNION_LON REUNION_TYPE REUNION_WIND REUNION_PRES REUNION_TNUM REUNION_CI REUNION_RMW REUNION_R34_NE REUNION_R34_SE REUNION_R34_SW REUNION_R34_NW REUNION_R50_NE REUNION_R50_SE REUNION_R50_SW REUNION_R50_NW REUNION_R64_NE REUNION_R64_SE REUNION_R64_SW REUNION_R64_NW BOM_LAT BOM_LON BOM_TYPE BOM_WIND BOM_PRES BOM_TNUM BOM_CI BOM_RMW BOM_R34_NE BOM_R34_SE BOM_R34_SW BOM_R34_NW BOM_R50_NE BOM_R50_SE BOM_R50_SW BOM_R50_NW BOM_R64_NE BOM_R64_SE BOM_R64_SW BOM_R64_NW BOM_ROCI BOM_POCI BOM_EYE BOM_POS_METHOD BOM_PRES_METHOD NADI_LAT NADI_LON NADI_CAT NADI_WIND NADI_PRES WELLINGTON_LAT WELLINGTON_LON WELLINGTON_WIND WELLINGTON_PRES DS824_LAT DS824_LON DS824_STAGE DS824_WIND DS824_PRES TD9636_LAT TD9636_LON TD9636_STAGE TD9636_WIND TD9636_PRES TD9635_LAT TD9635_LON TD9635_WIND TD9635_PRES TD9635_ROCI NEUMANN_LAT NEUMANN_LON NEUMANN_CLASS NEUMANN_WIND NEUMANN_PRES MLC_LAT MLC_LON MLC_CLASS MLC_WIND MLC_PRES USA_GUST BOM_GUST BOM_GUST_PER REUNION_GUST REUNION_GUST_PER USA_SEAHGT USA_SEARAD_NE USA_SEARAD_SE USA_SEARAD_SW USA_SEARAD_NW STORM_SPEED STORM_DIR
1916276N18088 1916 54 NI BB NOT_NAMED 1916-10-02 00:00:00 TS 17.8000 88.0000 main 298 241 _________O____ -1 17.8000 88.0000 TC 30 11 299
1916276N18088 1916 54 NI BB NOT_NAMED 1916-10-02 03:00:00 TS 18.0720 87.4787 main 241 183 _________PO___ -1 18.2079 87.2181 TC 30 17.8000 88.0000 1 14 297
1916276N18088 1916 54 NI BB NOT_NAMED 1916-10-02 06:00:00 TS 18.4347 86.7090 main 179 103 _________OP___ -1 18.6000 86.4000 TC 30 18.1867 87.1725 1 17 295
1916276N18088 1916 54 NI BB NOT_NAMED 1916-10-02 09:00:00 TS 18.7946 85.8818 main 103 38 _________PP___ -1 18.9650 85.5349 TC 30 18.5674 86.3445 1 17 294
1916276N18088 1916 54 NI BB NOT_NAMED 1916-10-02 12:00:00 TS 19.1196 85.1096 main 30 0 _________OP___ -1 19.3000 84.7000 TC 30 18.9393 85.5193 1 16 294
1916276N18088 1916 54 NI BB NOT_NAMED 1916-10-02 15:00:00 TS 19.4535 84.3385 main 0 0 _________PO___ -1 19.6069 83.9770 TC 30 19.3000 84.7000 1 16 295
1916276N18088 1916 54 NI BB NOT_NAMED 1916-10-02 18:00:00 TS 19.7729 83.5976 main 0 0 _________OP___ -1 19.9000 83.3000 TC 30 19.6458 83.8951 1 16 294
1916276N18088 1916 54 NI BB NOT_NAMED 1916-10-02 21:00:00 TS 20.0952 82.8379 main 0 0 _________PP___ -1 20.2228 82.5403 TC 30 19.9677 83.1355 1 15 294
1916276N18088 1916 54 NI BB NOT_NAMED 1916-10-03 00:00:00 TS 20.3778 82.1790 main 0 0 _________OP___ -1 20.5000 81.9000 TC 30 20.2556 82.4579 1 12 295
1916276N18088 1916 54 NI BB NOT_NAMED 1916-10-03 03:00:00 TS 20.5860 81.7160 main 0 0 _________PO___ -1 20.6720 81.5321 TC 30 20.5000 81.9000 1 8 297
1916276N18088 1916 54 NI BB NOT_NAMED 1916-10-03 06:00:00 TS 20.7437 81.3966 main 0 0 _________OP___ -1 20.8000 81.3000 TC 30 20.6874 81.4932 1 6 299
1916276N18088 1916 54 NI BB NOT_NAMED 1916-10-03 09:00:00 TS 20.8927 81.1241 main 0 0 _________PP___ -1 20.9499 81.0424 TC 30 20.8355 81.2057 1 6 302
1916276N18088 1916 54 NI BB NOT_NAMED 1916-10-03 12:00:00 TS 21.0330 80.8952 main 0 0 _________OP___ -1 21.1000 80.8000 TC 30 20.9660 80.9905 1 5 303
1916276N18088 1916 54 NI BB NOT_NAMED 1916-10-03 15:00:00 TS 21.1712 80.6712 main 0 0 _________PO___ -1 21.2425 80.5424 TC 30 21.1000 80.8000 1 5 304
1916276N18088 1916 54 NI BB NOT_NAMED 1916-10-03 18:00:00 TS 21.3319 80.4121 main 0 0 _________OP___ -1 21.4000 80.3000 TC 30 21.2638 80.5242 1 6 306
1916276N18088 1916 54 NI BB NOT_NAMED 1916-10-03 21:00:00 TS 21.5138 80.1689 main 0 0 _________PP___ -1 21.5925 80.0700 TC 30 21.4351 80.2678 1 6 313
1916276N18088 1916 54 NI BB NOT_NAMED 1916-10-04 00:00:00 TS 21.7069 79.9762 main 0 0 _________OP___ -1 21.8000 79.9000 TC 30 21.6138 80.0524 1 5 323
1916276N18088 1916 54 NI BB NOT_NAMED 1916-10-04 03:00:00 TS 21.9000 79.8562 main 0 0 _________PO___ -1 22.0000 79.8125 TC 30 21.8000 79.9000 1 4 338
1916276N18088 1916 54 NI BB NOT_NAMED 1916-10-04 06:00:00 TS 22.0983 79.8054 main 0 0 _________OP___ -1 22.2000 79.8000 TC 30 21.9966 79.8108 1 4 355
1916276N18088 1916 54 NI BB NOT_NAMED 1916-10-04 09:00:00 TS 22.2998 79.8074 main 0 0 _________PP___ -1 22.4000 79.8275 TC 30 22.1997 79.7874 1 4 8
1916276N18088 1916 54 NI BB NOT_NAMED 1916-10-04 12:00:00 TS 22.5015 79.8601 main 0 0 _________OP___ -1 22.6000 79.9000 TC 30 22.4029 79.8203 1 4 16
1916276N18088 1916 54 NI BB NOT_NAMED 1916-10-04 15:00:00 TS 22.7037 79.9388 main 0 0 _________PO___ -1 22.8075 79.9775 TC 30 22.6000 79.9000 1 4 21
1916276N18088 1916 54 NI BB NOT_NAMED 1916-10-04 18:00:00 TS 22.8928 80.0231 main 0 0 _________OP___ -1 23.0000 80.1000 TC 30 22.7856 79.9463 1 4 27
1916276N18088 1916 54 NI BB NOT_NAMED 1916-10-04 21:00:00 TS 23.0606 80.1416 main 0 0 _________PP___ -1 23.1573 80.2402 TC 30 22.9639 80.0431 1 4 43
1916276N18088 1916 54 NI BB NOT_NAMED 1916-10-05 00:00:00 TS 23.2176 80.3592 main 0 0 _________OP___ -1 23.3000 80.5000 TC 30 23.1353 80.2184 1 6 60
1916276N18088 1916 54 NI BB NOT_NAMED 1916-10-05 03:00:00 TS 23.3750 80.7238 main 0 0 _________PO___ -1 23.4501 80.9475 TC 30 23.3000 80.5000 1 8 68
1916276N18088 1916 54 NI BB NOT_NAMED 1916-10-05 06:00:00 TS 23.5309 81.2044 main 0 0 _________OP___ -1 23.6000 81.5000 TC 30 23.4618 80.9089 1 10 72
1916276N18088 1916 54 NI BB NOT_NAMED 1916-10-05 09:00:00 TS 23.6828 81.7325 main 0 0 _________PP___ -1 23.7499 82.0426 TC 30 23.6157 81.4223 1 10 73
1916276N18088 1916 54 NI BB NOT_NAMED 1916-10-05 12:00:00 TS 23.8308 82.2998 main 0 0 _________OP___ -1 23.9000 82.6000 TC 30 23.7616 81.9997 1 11 74
1916276N18088 1916 54 NI BB NOT_NAMED 1916-10-05 15:00:00 TS 23.9786 82.8713 main 0 0 _________PO___ -1 24.0572 83.1425 TC 30 23.9000 82.6000 1 10 75
1916276N18088 1916 54 NI BB NOT_NAMED 1916-10-05 18:00:00 TS 24.1039 83.4086 main 0 0 _________OP___ -1 24.2000 83.7000 TC 30 24.0318 83.1900 1 10 77
1916276N18088 1916 54 NI BB NOT_NAMED 1916-10-05 21:00:00 TS 24.2192 83.9761 main 0 0 _________PP___ -1 24.3105 84.2899 TC 30 24.1584 83.7669 1 10 78
1916276N18088 1916 54 NI BB NOT_NAMED 1916-10-06 00:00:00 TS 24.3205 84.5235 main 0 0 _________OP___ -1 24.4000 84.9000 TC 30 24.2807 84.3353 1 9 78
1916276N18088 1916 54 NI BB NOT_NAMED 1916-10-06 03:00:00 NR 24.4000 84.9000 main 0 __________O___ -1 TC 24.4000 84.9000 1 7 77

IBTrACS Databaseについて

本データベースは、米国NOAAが公開する1842年以降の世界の熱帯低気圧のベストトラックデータアーカイブInternational Best Track Archive for Climate Stewardship (IBTrACS)を、ウェブで閲覧しやすい形式に変換したものです。

最終更新日:2021-11-26